createdAt,value
2018-01-16T06:14:51.111Z,3.93
2018-01-16T06:17:17.918Z,3.60
2018-01-16T06:19:44.702Z,2.70
2018-01-16T06:22:11.504Z,2.27
2018-01-16T06:24:38.294Z,3.67
2018-01-16T06:27:05.091Z,3.67
2018-01-16T06:29:31.889Z,4.03
2018-01-16T06:31:58.638Z,3.30
2018-01-16T06:34:25.399Z,3.77
2018-01-16T06:36:52.181Z,4.40
2018-01-16T06:39:18.922Z,4.57
2018-01-16T06:41:45.694Z,4.90
2018-01-16T06:44:12.530Z,3.50
2018-01-16T06:46:39.282Z,3.87
2018-01-16T06:49:06.027Z,3.10
2018-01-16T06:51:32.858Z,3.83
2018-01-16T06:53:59.662Z,5.33
2018-01-16T06:56:26.812Z,4.23
2018-01-16T06:58:53.597Z,3.87
2018-01-16T07:01:20.394Z,4.10
2018-01-16T07:03:47.171Z,3.77
2018-01-16T07:06:14.010Z,3.13
2018-01-16T07:08:40.780Z,3.27
2018-01-16T07:11:07.556Z,4.17
2018-01-16T07:13:34.399Z,3.83
2018-01-16T07:16:01.197Z,2.43
2018-01-16T07:18:27.985Z,3.40
2018-01-16T07:20:54.805Z,3.40
2018-01-16T07:23:21.605Z,4.93
2018-01-16T07:25:48.384Z,3.20
2018-01-16T07:28:15.185Z,3.60
2018-01-16T07:30:41.937Z,4.97
2018-01-16T07:33:08.706Z,4.07
2018-01-16T07:35:35.501Z,2.77
2018-01-16T07:38:02.274Z,2.50
2018-01-16T07:40:29.052Z,4.10
2018-01-16T07:42:55.852Z,3.23
2018-01-16T07:45:22.679Z,4.27
2018-01-16T07:47:49.418Z,3.57
2018-01-16T07:50:16.223Z,4.37
2018-01-16T07:52:43.003Z,4.60
2018-01-16T07:55:09.808Z,4.67
2018-01-16T07:57:36.596Z,4.37
2018-01-16T08:00:03.394Z,3.10
2018-01-16T08:02:30.145Z,3.03
2018-01-16T08:04:56.945Z,2.23
2018-01-16T08:07:23.736Z,4.50
2018-01-16T08:09:50.497Z,3.10
2018-01-16T08:12:17.323Z,3.30
2018-01-16T08:14:44.125Z,3.40
2018-01-16T08:17:11.261Z,3.23
2018-01-16T08:19:38.067Z,3.50
2018-01-16T08:22:04.869Z,4.30
2018-01-16T08:24:31.640Z,3.40
2018-01-16T08:26:58.554Z,3.40
2018-01-16T08:29:25.298Z,3.23
2018-01-16T08:31:52.081Z,3.70
2018-01-16T08:34:18.947Z,3.10
2018-01-16T08:36:45.764Z,3.20
2018-01-16T08:39:12.552Z,3.53
2018-01-16T08:41:39.369Z,4.90
2018-01-16T08:44:06.129Z,4.60
2018-01-16T08:46:32.893Z,3.47
2018-01-16T08:48:59.689Z,3.77
2018-01-16T08:51:26.458Z,3.30
2018-01-16T08:53:53.251Z,1.73
2018-01-16T08:56:20.068Z,3.47
2018-01-16T08:58:46.918Z,3.63
2018-01-16T09:01:13.689Z,4.10
2018-01-16T09:03:40.482Z,3.87
2018-01-16T09:06:07.245Z,4.00
2018-01-16T09:08:33.982Z,3.60
2018-01-16T09:11:00.787Z,1.60
2018-01-16T09:13:27.530Z,3.30
2018-01-16T09:15:54.286Z,3.17
2018-01-16T09:18:21.105Z,4.13
2018-01-16T09:20:47.869Z,3.03
2018-01-16T09:23:14.642Z,2.87
2018-01-16T09:25:41.444Z,2.87
2018-01-16T09:28:08.202Z,2.60
2018-01-16T09:30:34.951Z,3.60
2018-01-16T09:33:01.785Z,2.50
2018-01-16T09:35:28.563Z,3.23
2018-01-16T09:37:55.317Z,3.20
2018-01-16T09:40:22.103Z,1.93
2018-01-16T09:42:48.918Z,4.47
2018-01-16T09:45:15.700Z,3.57
2018-01-16T09:47:42.509Z,3.20
2018-01-16T09:50:09.284Z,3.07
2018-01-16T09:52:36.026Z,1.23
2018-01-16T09:55:02.844Z,3.37
2018-01-16T09:57:29.597Z,3.30
2018-01-16T09:59:56.332Z,3.90
2018-01-16T10:02:23.175Z,2.60
2018-01-16T10:04:49.981Z,3.10
2018-01-16T10:07:16.733Z,3.33
2018-01-16T10:09:43.522Z,1.30
2018-01-16T10:12:10.314Z,2.30
2018-01-16T10:14:37.058Z,2.17
2018-01-16T10:17:03.854Z,2.63
2018-01-16T10:19:31.502Z,2.90
2018-01-16T10:21:58.261Z,3.73
2018-01-16T10:24:25.065Z,4.13
2018-01-16T10:26:51.840Z,2.73
2018-01-16T10:29:18.632Z,3.00
2018-01-16T10:31:45.469Z,3.43
2018-01-16T10:34:12.271Z,2.00
2018-01-16T10:36:39.024Z,2.13
2018-01-16T10:39:05.826Z,2.90
2018-01-16T10:41:32.582Z,2.57
2018-01-16T10:43:59.348Z,3.60
2018-01-16T10:46:26.139Z,3.17
2018-01-16T10:48:52.894Z,4.10
2018-01-16T10:51:19.663Z,2.60
2018-01-16T10:53:46.460Z,2.27
2018-01-16T10:56:13.226Z,2.47
2018-01-16T10:58:40.034Z,3.00
2018-01-16T11:01:06.860Z,3.43
2018-01-16T11:03:33.654Z,2.73
2018-01-16T11:06:00.405Z,3.10
2018-01-16T11:08:27.269Z,2.30
2018-01-16T11:10:54.022Z,3.20
2018-01-16T11:13:20.816Z,2.90
2018-01-16T11:15:47.620Z,3.07
2018-01-16T11:18:14.391Z,3.07
2018-01-16T11:20:41.187Z,2.70
2018-01-16T11:23:07.993Z,3.10
2018-01-16T11:25:34.799Z,4.23
2018-01-16T11:28:01.582Z,2.50
2018-01-16T11:30:28.376Z,3.20
2018-01-16T11:32:55.142Z,1.80
2018-01-16T11:35:21.923Z,3.83
2018-01-16T11:37:48.744Z,3.20
2018-01-16T11:40:15.522Z,2.60
2018-01-16T11:42:42.527Z,3.30
2018-01-16T11:45:09.345Z,2.67
2018-01-16T11:47:36.122Z,2.63
2018-01-16T11:50:02.938Z,3.03
2018-01-16T11:52:29.776Z,2.23
2018-01-16T11:54:56.542Z,1.67
2018-01-16T11:57:23.317Z,2.27
2018-01-16T11:59:50.200Z,1.30
2018-01-16T12:02:16.981Z,2.07
2018-01-16T12:04:43.781Z,1.53
2018-01-16T12:07:10.617Z,2.07
2018-01-16T12:09:37.382Z,2.03
2018-01-16T12:12:04.145Z,2.47
2018-01-16T12:14:30.963Z,2.87
2018-01-16T12:16:57.725Z,1.40
2018-01-16T12:19:24.501Z,2.27
2018-01-16T12:21:51.314Z,2.30
2018-01-16T12:24:18.116Z,2.37
2018-01-16T12:26:44.893Z,2.50
2018-01-16T12:29:11.716Z,2.17
2018-01-16T12:31:38.480Z,2.07
2018-01-16T12:34:05.300Z,1.57
2018-01-16T12:36:32.126Z,1.90
2018-01-16T12:38:58.930Z,2.33
2018-01-16T12:41:25.734Z,1.87
2018-01-16T12:43:52.553Z,2.03
2018-01-16T12:46:19.334Z,2.70
2018-01-16T12:48:46.128Z,2.30
2018-01-16T12:51:12.965Z,2.90
2018-01-16T12:53:39.749Z,1.50
2018-01-16T12:56:06.492Z,1.77
2018-01-16T12:58:33.299Z,3.17
2018-01-16T13:01:00.059Z,2.00
2018-01-16T13:03:26.842Z,1.90
2018-01-16T13:05:53.642Z,2.73
2018-01-16T13:08:20.396Z,2.20
2018-01-16T13:10:47.220Z,2.40
2018-01-16T13:13:14.045Z,2.33
2018-01-16T13:15:40.880Z,2.87
2018-01-16T13:18:07.649Z,2.17
2018-01-16T13:20:34.509Z,3.00
2018-01-16T13:23:01.307Z,2.00
2018-01-16T13:25:28.093Z,2.40
2018-01-16T13:27:54.910Z,2.60
2018-01-16T13:30:21.671Z,2.67
2018-01-16T13:32:48.434Z,3.03
2018-01-16T13:35:15.226Z,2.93
2018-01-16T13:37:41.970Z,1.30
2018-01-16T13:40:08.749Z,2.20
2018-01-16T13:42:35.534Z,2.93
2018-01-16T13:45:02.296Z,2.07
2018-01-16T13:47:29.041Z,3.60
2018-01-16T13:49:56.203Z,2.63
2018-01-16T13:52:22.992Z,3.20
2018-01-16T13:54:49.818Z,0.90
2018-01-16T13:57:16.606Z,0.80
2018-01-16T13:59:43.413Z,2.20
2018-01-16T14:02:10.191Z,1.60
2018-01-16T14:04:37.026Z,0.70
2018-01-16T14:07:03.822Z,0.90
2018-01-16T14:09:30.590Z,0.40
2018-01-16T14:11:57.374Z,0.60
2018-01-16T14:14:24.121Z,0.80
2018-01-16T14:16:50.891Z,0.90
2018-01-16T14:19:17.693Z,0.93
2018-01-16T14:21:44.451Z,0.67
2018-01-16T14:24:11.298Z,0.93
2018-01-16T14:26:38.104Z,1.03
2018-01-16T14:29:04.895Z,1.20
2018-01-16T14:31:31.651Z,1.27
2018-01-16T14:33:58.432Z,1.30
2018-01-16T14:36:25.208Z,1.80
2018-01-16T14:38:51.980Z,1.47
2018-01-16T14:41:18.818Z,1.80
2018-01-16T14:43:45.584Z,1.87
2018-01-16T14:46:12.336Z,2.00
2018-01-16T14:48:39.136Z,2.03
2018-01-16T14:51:05.922Z,2.43
2018-01-16T14:53:32.705Z,1.87
2018-01-16T14:55:59.502Z,1.83
2018-01-16T14:58:26.313Z,1.33
2018-01-16T15:00:53.157Z,1.67
2018-01-16T15:03:19.995Z,2.30
2018-01-16T15:05:46.808Z,0.83
2018-01-16T15:08:13.610Z,1.60
2018-01-16T15:10:40.396Z,1.00
2018-01-16T15:13:07.154Z,1.13
2018-01-16T15:15:33.933Z,2.00
2018-01-16T15:18:00.742Z,0.87
2018-01-16T15:20:27.505Z,1.10
2018-01-16T15:22:54.257Z,1.50
2018-01-16T15:25:21.062Z,1.37
2018-01-16T15:27:47.825Z,1.60
2018-01-16T15:30:14.610Z,1.23
2018-01-16T15:32:41.421Z,1.43
2018-01-16T15:35:08.226Z,1.20
2018-01-16T15:37:34.998Z,1.60
2018-01-16T15:40:01.793Z,1.23
2018-01-16T15:42:28.617Z,1.23
2018-01-16T15:44:55.374Z,1.33
2018-01-16T15:47:22.205Z,0.90
2018-01-16T15:49:49.011Z,1.33
2018-01-16T15:52:15.785Z,1.50
2018-01-16T15:54:42.594Z,1.17
2018-01-16T15:57:09.363Z,1.40
2018-01-16T15:59:36.121Z,1.77
2018-01-16T16:02:02.953Z,0.90
2018-01-16T16:04:29.805Z,0.87
2018-01-16T16:06:56.596Z,1.30
2018-01-16T16:09:23.437Z,1.63
2018-01-16T16:11:50.241Z,1.23
2018-01-16T16:14:17.009Z,1.20
2018-01-16T16:16:43.812Z,1.60
2018-01-16T16:19:10.585Z,1.83
2018-01-16T16:21:37.348Z,2.00
2018-01-16T16:24:04.154Z,1.37
2018-01-16T16:26:30.924Z,2.10
2018-01-16T16:28:57.705Z,1.50
2018-01-16T16:31:24.524Z,1.30
2018-01-16T16:33:51.899Z,1.30
2018-01-16T16:36:18.705Z,1.30
2018-01-16T16:38:45.506Z,1.80
2018-01-16T16:41:12.257Z,1.43
2018-01-16T16:43:39.024Z,1.60
2018-01-16T16:46:05.829Z,1.50
2018-01-16T16:48:32.616Z,1.63
2018-01-16T16:50:59.394Z,2.30
2018-01-16T16:53:26.213Z,2.33
2018-01-16T16:55:53.017Z,1.50
2018-01-16T16:58:19.802Z,1.80
2018-01-16T17:00:46.656Z,2.00
2018-01-16T17:03:13.454Z,2.80
2018-01-16T17:05:40.260Z,2.00
2018-01-16T17:08:07.049Z,2.03
2018-01-16T17:10:33.810Z,1.80
2018-01-16T17:13:00.638Z,1.90
2018-01-16T17:15:27.419Z,1.90
2018-01-16T17:17:54.197Z,1.90
2018-01-16T17:20:20.955Z,1.60
2018-01-16T17:22:47.850Z,1.25
2018-01-16T17:25:14.688Z,1.90
2018-01-16T17:27:41.470Z,1.83
2018-01-16T17:30:08.386Z,1.67
2018-01-16T17:32:35.166Z,2.70
2018-01-16T17:35:01.956Z,1.33
2018-01-16T17:37:28.836Z,1.87
2018-01-16T17:39:55.633Z,1.23
2018-01-16T17:42:22.427Z,1.47
2018-01-16T17:44:49.238Z,1.60
2018-01-16T17:47:16.005Z,1.33
2018-01-16T17:49:42.779Z,1.20
2018-01-16T17:52:09.593Z,1.40
2018-01-16T17:54:36.365Z,1.70
2018-01-16T17:57:03.143Z,1.43
2018-01-16T17:59:29.932Z,1.60
2018-01-16T18:01:56.714Z,1.70
2018-01-16T18:04:23.564Z,1.50
2018-01-16T18:06:50.402Z,1.33
2018-01-16T18:09:17.239Z,1.55
2018-01-16T18:11:44.037Z,1.25
2018-01-16T18:14:10.830Z,2.05
2018-01-16T18:16:37.616Z,2.60
2018-01-16T18:19:04.438Z,1.75
2018-01-16T18:21:31.295Z,2.60
2018-01-16T18:23:58.074Z,1.87
2018-01-16T18:26:24.851Z,2.03
2018-01-16T18:28:51.661Z,2.80
2018-01-16T18:31:18.425Z,2.20
2018-01-16T18:33:45.172Z,2.87
2018-01-16T18:36:12.012Z,3.03
2018-01-16T18:38:38.807Z,1.35
2018-01-16T18:41:05.582Z,2.50
2018-01-16T18:43:32.399Z,2.70
2018-01-16T18:45:59.192Z,2.50
2018-01-16T18:48:25.963Z,2.93
2018-01-16T18:50:52.829Z,2.20
2018-01-16T18:53:19.594Z,2.77
2018-01-16T18:55:46.435Z,2.20
2018-01-16T18:58:13.250Z,3.60
2018-01-16T19:00:40.047Z,3.60
2018-01-16T19:03:06.821Z,3.33
2018-01-16T19:05:33.633Z,4.37
2018-01-16T19:08:00.463Z,2.58
2018-01-16T19:10:27.241Z,3.97
2018-01-16T19:12:54.082Z,4.20
2018-01-16T19:15:20.905Z,5.00
2018-01-16T19:17:47.688Z,1.58
2018-01-16T19:20:15.188Z,2.37
2018-01-16T19:22:42.007Z,4.45
2018-01-16T19:25:08.906Z,2.05
2018-01-16T19:27:35.813Z,3.50
2018-01-16T19:30:02.660Z,3.10
2018-01-16T19:32:31.280Z,2.65
2018-01-16T19:34:58.104Z,3.60
2018-01-16T19:37:24.956Z,2.60
2018-01-16T19:39:51.777Z,3.40
2018-01-16T19:42:18.642Z,2.50
2018-01-16T19:44:45.418Z,3.23
2018-01-16T19:47:12.207Z,3.83
2018-01-16T19:49:39.060Z,4.00
2018-01-16T19:52:05.918Z,3.50
2018-01-16T19:54:32.743Z,2.70
2018-01-16T19:56:59.901Z,2.47
2018-01-16T19:59:26.764Z,4.23
2018-01-16T20:01:53.577Z,4.40
2018-01-16T20:04:22.342Z,3.10
2018-01-16T20:06:49.147Z,3.08
2018-01-16T20:09:15.969Z,4.57
2018-01-16T20:11:42.799Z,3.20
2018-01-16T20:14:09.638Z,3.57
2018-01-16T20:16:36.475Z,3.43
2018-01-16T20:19:03.830Z,3.93
2018-01-16T20:21:31.009Z,3.53
2018-01-16T20:23:57.842Z,3.20
2018-01-16T20:26:24.664Z,3.10
2018-01-16T20:28:51.538Z,2.90
2018-01-16T20:31:18.412Z,2.83
2018-01-16T20:33:45.239Z,2.30
2018-01-16T20:36:12.096Z,2.30
2018-01-16T20:38:38.945Z,2.00
2018-01-16T20:41:05.771Z,1.70
2018-01-16T20:43:32.604Z,2.22
2018-01-16T20:45:59.877Z,2.00
2018-01-16T20:48:26.720Z,2.27
2018-01-16T20:50:53.531Z,2.37
2018-01-16T20:53:20.311Z,1.93
2018-01-16T20:55:47.127Z,2.20
2018-01-16T20:58:13.937Z,2.80
2018-01-16T21:00:40.732Z,2.20
2018-01-16T21:03:07.885Z,1.43
2018-01-16T21:05:34.703Z,2.07
2018-01-16T21:08:01.538Z,1.45
2018-01-16T21:10:28.371Z,1.40
2018-01-16T21:12:55.175Z,1.77
2018-01-16T21:15:21.973Z,1.30
2018-01-16T21:17:48.795Z,1.30
2018-01-16T21:20:15.675Z,1.40
2018-01-16T21:22:42.498Z,0.70
2018-01-16T21:25:09.476Z,1.10
2018-01-16T21:27:36.309Z,0.90
2018-01-16T21:30:03.130Z,1.48
2018-01-16T21:32:29.960Z,0.98
2018-01-16T21:34:57.461Z,0.70
2018-01-16T21:37:24.273Z,0.87
2018-01-16T21:39:51.113Z,0.90
2018-01-16T21:42:17.942Z,0.85
2018-01-16T21:44:48.829Z,0.90
2018-01-16T21:47:15.661Z,1.23
2018-01-16T21:49:42.944Z,0.70
2018-01-16T21:52:09.763Z,1.00
2018-01-16T21:54:36.661Z,0.85
2018-01-16T21:57:03.505Z,1.20
2018-01-16T21:59:30.272Z,1.30
2018-01-16T22:01:57.366Z,1.45
2018-01-16T22:04:24.858Z,1.30
2018-01-16T22:06:51.638Z,1.58
2018-01-16T22:09:18.472Z,1.87
2018-01-16T22:11:46.072Z,2.53
2018-01-16T22:14:13.023Z,1.20
2018-01-16T22:16:39.865Z,1.73
2018-01-16T22:19:07.587Z,1.50
2018-01-16T22:21:34.415Z,2.47
2018-01-16T22:24:01.290Z,2.90
2018-01-16T22:26:28.072Z,2.22
2018-01-16T22:28:54.874Z,2.08
2018-01-16T22:31:21.812Z,2.42
2018-01-16T22:33:49.690Z,1.90
2018-01-16T22:36:16.729Z,2.20
2018-01-16T22:38:43.551Z,2.65
2018-01-16T22:41:11.434Z,2.73
2018-01-16T22:43:38.234Z,3.90
2018-01-16T22:46:05.091Z,2.33
2018-01-16T22:48:32.041Z,2.87
2018-01-16T22:50:58.858Z,2.50
2018-01-16T22:53:25.728Z,4.50
2018-01-16T22:55:52.726Z,4.55
2018-01-16T22:58:19.587Z,3.87
2018-01-16T23:00:47.977Z,3.28
2018-01-16T23:03:14.732Z,4.67
2018-01-16T23:05:42.378Z,3.57
2018-01-16T23:08:09.352Z,3.47
2018-01-16T23:10:36.159Z,2.90
2018-01-16T23:13:02.922Z,3.50
2018-01-16T23:15:29.752Z,2.67
2018-01-16T23:17:56.546Z,5.00
2018-01-16T23:20:23.334Z,3.67
2018-01-16T23:22:50.142Z,4.80
2018-01-16T23:25:16.953Z,2.67
2018-01-16T23:27:43.818Z,3.20
2018-01-16T23:30:10.635Z,1.70
2018-01-16T23:32:37.412Z,2.60
